createdAt,value
2018-12-11T00:00:44.283Z,4.04
2018-12-11T00:01:44.666Z,4.05
2018-12-11T00:02:44.973Z,4.05
2018-12-11T00:03:45.259Z,4.05
2018-12-11T00:04:45.846Z,4.06
2018-12-11T00:05:46.285Z,4.07
2018-12-11T00:06:46.706Z,4.07
2018-12-11T00:07:47.285Z,4.08
2018-12-11T00:07:56.108Z,4.18
2018-12-11T00:08:56.499Z,4.18
2018-12-11T00:09:57.184Z,4.18
2018-12-11T00:10:58.039Z,4.17
2018-12-11T00:11:58.166Z,4.17
2018-12-11T00:12:58.722Z,4.17
2018-12-11T00:13:59.204Z,4.17
2018-12-11T00:14:59.629Z,4.17
2018-12-11T00:16:00.216Z,4.17
2018-12-11T00:17:00.499Z,4.17
2018-12-11T00:18:00.966Z,4.18
2018-12-11T00:19:01.434Z,4.18
2018-12-11T00:20:01.747Z,4.18
2018-12-11T00:21:02.159Z,4.18
2018-12-11T00:22:02.527Z,4.18
2018-12-11T00:23:02.981Z,4.19
2018-12-11T00:24:03.347Z,4.19
2018-12-11T00:25:03.703Z,4.19
2018-12-11T00:26:04.130Z,4.19
2018-12-11T00:27:04.434Z,4.19
2018-12-11T00:28:04.717Z,4.19
2018-12-11T00:29:05.240Z,4.19
2018-12-11T00:30:05.587Z,4.19
2018-12-11T00:31:06.017Z,4.19
2018-12-11T00:32:06.321Z,4.19
2018-12-11T00:33:06.669Z,4.19
2018-12-11T00:34:06.986Z,4.19
2018-12-11T00:35:08.144Z,4.19
2018-12-11T00:36:08.660Z,4.19
2018-12-11T00:37:08.984Z,4.19
2018-12-11T00:38:09.290Z,4.19
2018-12-11T00:39:09.767Z,4.19
2018-12-11T00:40:10.045Z,4.20
2018-12-11T00:41:10.662Z,4.20
2018-12-11T00:42:11.253Z,4.20
2018-12-11T00:43:11.506Z,4.21
2018-12-11T00:44:11.929Z,4.21
2018-12-11T00:45:12.357Z,4.21
2018-12-11T00:46:12.788Z,4.22
2018-12-11T00:47:13.246Z,4.22
2018-12-11T00:48:13.612Z,4.22
2018-12-11T00:49:14.227Z,4.22
2018-12-11T00:50:14.595Z,4.22
2018-12-11T00:51:14.909Z,4.23
2018-12-11T00:51:23.213Z,4.27
2018-12-11T00:52:24.737Z,4.26
2018-12-11T00:53:24.995Z,4.27
2018-12-11T00:54:25.354Z,4.27
2018-12-11T00:55:26.231Z,4.27
2018-12-11T00:56:26.673Z,4.28
2018-12-11T00:57:27.607Z,4.28
2018-12-11T00:58:28.039Z,4.29
2018-12-11T00:59:28.494Z,4.29
2018-12-11T01:00:28.856Z,4.29
2018-12-11T01:01:29.308Z,4.29
2018-12-11T01:02:29.787Z,4.30
2018-12-11T01:03:30.063Z,4.30
2018-12-11T01:04:30.832Z,4.30
2018-12-11T01:05:31.032Z,4.30
2018-12-11T01:06:31.739Z,4.29
2018-12-11T01:07:32.011Z,4.29
2018-12-11T01:08:32.294Z,4.29
2018-12-11T01:09:32.535Z,4.30
2018-12-11T01:10:32.977Z,4.30
2018-12-11T01:11:33.388Z,4.30
2018-12-11T01:12:33.621Z,4.31
2018-12-11T01:13:33.892Z,4.31
2018-12-11T01:14:34.136Z,4.31
2018-12-11T01:15:34.552Z,4.31
2018-12-11T01:16:34.975Z,4.31
2018-12-11T01:17:35.185Z,4.32
2018-12-11T01:18:35.446Z,4.32
2018-12-11T01:19:35.985Z,4.33
2018-12-11T01:20:36.346Z,4.33
2018-12-11T01:21:36.796Z,4.33
2018-12-11T01:22:37.124Z,4.34
2018-12-11T01:23:37.557Z,4.35
2018-12-11T01:24:37.914Z,4.35
2018-12-11T01:25:38.491Z,4.36
2018-12-11T01:26:38.736Z,4.36
2018-12-11T01:27:38.951Z,4.37
2018-12-11T01:28:39.261Z,4.38
2018-12-11T01:29:39.603Z,4.38
2018-12-11T01:30:39.996Z,4.39
2018-12-11T01:31:40.357Z,4.39
2018-12-11T01:32:40.608Z,4.40
2018-12-11T01:33:41.336Z,4.41
2018-12-11T01:34:41.651Z,4.41
2018-12-11T01:35:42.127Z,4.42
2018-12-11T01:35:50.463Z,4.49
2018-12-11T01:36:51.989Z,4.49
2018-12-11T01:37:52.607Z,4.49
2018-12-11T01:38:53.324Z,4.49
2018-12-11T01:39:53.984Z,4.49
2018-12-11T01:40:54.233Z,4.49
2018-12-11T01:41:54.962Z,4.49
2018-12-11T01:42:55.774Z,4.49
2018-12-11T01:43:56.270Z,4.49
2018-12-11T01:44:56.697Z,4.49
2018-12-11T01:45:57.062Z,4.49
2018-12-11T01:46:57.456Z,4.49
2018-12-11T01:47:57.951Z,4.48
2018-12-11T01:48:58.750Z,4.48
2018-12-11T01:49:59.344Z,4.47
2018-12-11T01:50:59.876Z,4.47
2018-12-11T01:52:00.189Z,4.47
2018-12-11T01:53:00.786Z,4.47
2018-12-11T01:54:01.621Z,4.46
2018-12-11T01:55:02.445Z,4.46
2018-12-11T01:56:02.757Z,4.46
2018-12-11T01:57:03.297Z,4.46
2018-12-11T01:58:03.691Z,4.46
2018-12-11T01:59:04.013Z,4.47
2018-12-11T02:00:04.566Z,4.47
2018-12-11T02:01:04.810Z,4.47
2018-12-11T02:02:05.166Z,4.47
2018-12-11T02:03:05.523Z,4.48
2018-12-11T02:04:05.832Z,4.49
2018-12-11T02:05:06.274Z,4.49
2018-12-11T02:06:06.659Z,4.50
2018-12-11T02:07:06.936Z,4.50
2018-12-11T02:08:07.391Z,4.50
2018-12-11T02:09:07.849Z,4.51
2018-12-11T02:10:08.305Z,4.51
2018-12-11T02:11:08.604Z,4.51
2018-12-11T02:12:09.021Z,4.51
2018-12-11T02:13:09.300Z,4.51
2018-12-11T02:14:09.785Z,4.51
2018-12-11T02:15:10.491Z,4.51
2018-12-11T02:16:11.136Z,4.50
2018-12-11T02:17:11.483Z,4.49
2018-12-11T02:18:11.738Z,4.48
2018-12-11T02:19:11.103Z,4.47
2018-12-11T02:19:19.144Z,4.34
2018-12-11T02:20:20.477Z,4.33
2018-12-11T02:21:20.973Z,4.33
2018-12-11T02:22:21.341Z,4.33
2018-12-11T02:23:21.581Z,4.33
2018-12-11T02:24:22.178Z,4.33
2018-12-11T02:25:22.537Z,4.33
2018-12-11T02:26:22.961Z,4.33
2018-12-11T02:27:23.324Z,4.33
2018-12-11T02:28:23.847Z,4.33
2018-12-11T02:29:24.366Z,4.33
2018-12-11T02:30:24.722Z,4.32
2018-12-11T02:31:25.575Z,4.32
2018-12-11T02:32:25.967Z,4.31
2018-12-11T02:33:26.611Z,4.31
2018-12-11T02:34:26.994Z,4.30
2018-12-11T02:35:27.468Z,4.30
2018-12-11T02:36:27.924Z,4.29
2018-12-11T02:37:28.287Z,4.29
2018-12-11T02:38:28.502Z,4.28
2018-12-11T02:39:28.847Z,4.28
2018-12-11T02:40:29.361Z,4.28
2018-12-11T02:41:29.748Z,4.27
2018-12-11T02:42:30.302Z,4.27
2018-12-11T02:43:30.692Z,4.27
2018-12-11T02:44:31.024Z,4.26
2018-12-11T02:45:31.559Z,4.26
2018-12-11T02:46:32.097Z,4.26
2018-12-11T02:47:32.457Z,4.26
2018-12-11T02:48:32.745Z,4.25
2018-12-11T02:49:33.119Z,4.25
2018-12-11T02:50:33.406Z,4.25
2018-12-11T02:51:33.895Z,4.24
2018-12-11T02:52:34.207Z,4.23
2018-12-11T02:53:34.659Z,4.22
2018-12-11T02:54:35.086Z,4.21
2018-12-11T02:55:35.608Z,4.19
2018-12-11T02:56:35.918Z,4.18
2018-12-11T02:57:35.219Z,4.16
2018-12-11T02:58:36.566Z,4.14
2018-12-11T02:59:36.934Z,4.12
2018-12-11T03:00:37.407Z,4.11
2018-12-11T03:01:37.957Z,4.09
2018-12-11T03:02:38.750Z,4.08
2018-12-11T03:03:39.400Z,4.07
2018-12-11T03:04:39.652Z,4.06
2018-12-11T03:04:47.939Z,3.93
2018-12-11T03:05:49.204Z,3.93
2018-12-11T03:06:49.711Z,3.93
2018-12-11T03:07:49.916Z,3.94
2018-12-11T03:08:49.432Z,3.94
2018-12-11T03:09:50.857Z,3.95
2018-12-11T03:10:51.766Z,3.96
2018-12-11T03:11:52.030Z,3.97
2018-12-11T03:12:52.233Z,3.98
2018-12-11T03:13:52.677Z,3.99
2018-12-11T03:14:53.474Z,4.01
2018-12-11T03:15:53.791Z,4.02
2018-12-11T03:16:54.183Z,4.03
2018-12-11T03:17:54.414Z,4.04
2018-12-11T03:18:54.672Z,4.05
2018-12-11T03:19:55.128Z,4.06
2018-12-11T03:20:55.484Z,4.07
2018-12-11T03:21:55.844Z,4.09
2018-12-11T03:22:56.165Z,4.10
2018-12-11T03:23:56.398Z,4.11
2018-12-11T03:24:56.770Z,4.12
2018-12-11T03:25:57.238Z,4.13
2018-12-11T03:26:57.544Z,4.14
2018-12-11T03:27:57.828Z,4.16
2018-12-11T03:28:58.121Z,4.17
2018-12-11T03:29:58.573Z,4.19
2018-12-11T03:30:58.994Z,4.20
2018-12-11T03:31:59.716Z,4.22
2018-12-11T03:33:00.065Z,4.23
2018-12-11T03:34:00.496Z,4.23
2018-12-11T03:35:01.075Z,4.24
2018-12-11T03:36:01.924Z,4.24
2018-12-11T03:37:02.503Z,4.25
2018-12-11T03:38:02.890Z,4.26
2018-12-11T03:39:03.237Z,4.27
2018-12-11T03:40:03.544Z,4.28
2018-12-11T03:41:03.938Z,4.28
2018-12-11T03:42:04.777Z,4.29
2018-12-11T03:43:05.092Z,4.29
2018-12-11T03:44:05.707Z,4.30
2018-12-11T03:45:06.285Z,4.30
2018-12-11T03:46:06.620Z,4.30
2018-12-11T03:47:07.297Z,4.31
2018-12-11T03:48:07.891Z,4.31
2018-12-11T03:48:16.204Z,4.34
2018-12-11T03:49:17.422Z,4.34
2018-12-11T03:50:17.729Z,4.34
2018-12-11T03:51:18.077Z,4.34
2018-12-11T03:52:21.573Z,4.34
2018-12-11T03:53:17.952Z,4.33
2018-12-11T03:54:19.311Z,4.33
2018-12-11T03:55:19.498Z,4.33
2018-12-11T03:56:20.918Z,4.32
2018-12-11T03:57:20.691Z,4.32
2018-12-11T03:58:21.218Z,4.32
2018-12-11T03:59:21.677Z,4.32
2018-12-11T04:00:21.968Z,4.32
2018-12-11T04:01:22.968Z,4.32
2018-12-11T04:02:23.736Z,4.32
2018-12-11T04:03:24.073Z,4.32
2018-12-11T04:04:24.678Z,4.32
2018-12-11T04:05:25.166Z,4.33
2018-12-11T04:06:24.490Z,4.33
2018-12-11T04:07:26.115Z,4.33
2018-12-11T04:08:26.769Z,4.34
2018-12-11T04:09:27.122Z,4.34
2018-12-11T04:10:27.433Z,4.34
2018-12-11T04:11:27.925Z,4.34
2018-12-11T04:12:28.441Z,4.34
2018-12-11T04:13:28.684Z,4.34
2018-12-11T04:14:29.175Z,4.34
2018-12-11T04:15:29.555Z,4.34
2018-12-11T04:16:30.227Z,4.34
2018-12-11T04:17:30.684Z,4.34
2018-12-11T04:18:30.917Z,4.34
2018-12-11T04:19:31.152Z,4.35
2018-12-11T04:20:31.632Z,4.35
2018-12-11T04:21:32.076Z,4.36
2018-12-11T04:22:32.556Z,4.36
2018-12-11T04:23:33.313Z,4.37
2018-12-11T04:24:33.642Z,4.37
2018-12-11T04:25:33.925Z,4.37
2018-12-11T04:26:34.277Z,4.38
2018-12-11T04:27:34.758Z,4.38
2018-12-11T04:28:35.143Z,4.37
2018-12-11T04:29:35.888Z,4.38
2018-12-11T04:30:36.406Z,4.38
2018-12-11T04:31:36.788Z,4.38
2018-12-11T04:31:45.195Z,4.40
2018-12-11T04:32:45.823Z,4.40
2018-12-11T04:33:47.125Z,4.40
2018-12-11T04:34:46.507Z,4.40
2018-12-11T04:35:46.915Z,4.40
2018-12-11T04:36:47.321Z,4.40
2018-12-11T04:37:47.541Z,4.39
2018-12-11T04:38:47.787Z,4.39
2018-12-11T04:39:48.161Z,4.40
2018-12-11T04:40:48.622Z,4.40
2018-12-11T04:41:49.016Z,4.41
2018-12-11T04:42:49.343Z,4.41
2018-12-11T04:43:49.632Z,4.41
2018-12-11T04:44:49.976Z,4.41
2018-12-11T04:45:50.298Z,4.41
2018-12-11T04:46:50.557Z,4.41
2018-12-11T04:47:49.997Z,4.41
2018-12-11T04:48:51.395Z,4.40
2018-12-11T04:49:51.687Z,4.40
2018-12-11T04:50:52.053Z,4.39
2018-12-11T04:51:52.389Z,4.39
2018-12-11T04:52:52.752Z,4.38
2018-12-11T04:53:53.107Z,4.38
2018-12-11T04:54:53.482Z,4.37
2018-12-11T04:55:53.879Z,4.37
2018-12-11T04:56:54.156Z,4.36
2018-12-11T04:57:55.075Z,4.35
2018-12-11T04:58:55.360Z,4.35
2018-12-11T04:59:55.732Z,4.34
2018-12-11T05:00:55.835Z,4.34
2018-12-11T05:01:56.217Z,4.34
2018-12-11T05:02:56.489Z,4.33
2018-12-11T05:03:56.855Z,4.33
2018-12-11T05:04:57.460Z,4.33
2018-12-11T05:05:57.898Z,4.33
2018-12-11T05:06:57.925Z,4.32
2018-12-11T05:07:58.418Z,4.32
2018-12-11T05:08:58.654Z,4.32
2018-12-11T05:09:58.946Z,4.32
2018-12-11T05:10:59.202Z,4.31
2018-12-11T05:11:59.667Z,4.31
2018-12-11T05:13:00.029Z,4.30
2018-12-11T05:14:00.304Z,4.30
2018-12-11T05:15:00.666Z,4.29
2018-12-11T05:16:01.021Z,4.29
2018-12-11T05:16:10.972Z,4.24
2018-12-11T05:17:12.251Z,4.24
2018-12-11T05:18:12.526Z,4.24
2018-12-11T05:19:12.865Z,4.24
2018-12-11T05:20:13.345Z,4.25
2018-12-11T05:21:13.744Z,4.25
2018-12-11T05:22:14.168Z,4.25
2018-12-11T05:23:14.788Z,4.26
2018-12-11T05:24:15.439Z,4.27
2018-12-11T05:25:15.683Z,4.28
2018-12-11T05:26:15.979Z,4.28
2018-12-11T05:27:16.317Z,4.29
2018-12-11T05:28:16.761Z,4.29
2018-12-11T05:29:17.281Z,4.30
2018-12-11T05:30:16.534Z,4.30
2018-12-11T05:31:18.460Z,4.30
2018-12-11T05:32:18.885Z,4.30
2018-12-11T05:33:19.228Z,4.31
2018-12-11T05:34:19.498Z,4.30
2018-12-11T05:35:19.756Z,4.29
2018-12-11T05:36:20.060Z,4.29
2018-12-11T05:37:20.327Z,4.28
2018-12-11T05:38:21.114Z,4.27
2018-12-11T05:39:21.552Z,4.27
2018-12-11T05:40:20.919Z,4.26
2018-12-11T05:41:22.234Z,4.25
2018-12-11T05:42:22.619Z,4.25
2018-12-11T05:43:22.995Z,4.24
2018-12-11T05:44:23.286Z,4.24
2018-12-11T05:45:23.708Z,4.24
2018-12-11T05:46:24.068Z,4.24
2018-12-11T05:47:24.487Z,4.23
2018-12-11T05:48:24.850Z,4.23
2018-12-11T05:49:25.073Z,4.22
2018-12-11T05:50:25.323Z,4.22
2018-12-11T05:51:25.674Z,4.21
2018-12-11T05:52:26.019Z,4.21
2018-12-11T05:53:26.229Z,4.20
2018-12-11T05:54:26.481Z,4.19
2018-12-11T05:55:26.780Z,4.18
2018-12-11T05:56:27.562Z,4.18
2018-12-11T05:57:27.766Z,4.17
2018-12-11T05:58:27.966Z,4.16
2018-12-11T05:59:28.291Z,4.16
2018-12-11T06:00:28.679Z,4.16
2018-12-11T06:01:29.031Z,4.15
2018-12-11T06:02:29.436Z,4.15
2018-12-11T06:02:37.757Z,4.09
2018-12-11T06:03:39.095Z,4.09
2018-12-11T06:04:39.285Z,4.09
2018-12-11T06:05:40.144Z,4.10
2018-12-11T06:06:42.457Z,4.11
2018-12-11T06:07:40.507Z,4.11
2018-12-11T06:08:41.766Z,4.12
2018-12-11T06:09:41.841Z,4.12
2018-12-11T06:10:42.397Z,4.12
2018-12-11T06:11:42.676Z,4.11
2018-12-11T06:12:43.063Z,4.11
2018-12-11T06:13:43.604Z,4.10
2018-12-11T06:14:43.856Z,4.10
2018-12-11T06:15:44.200Z,4.09
2018-12-11T06:16:43.832Z,4.08
2018-12-11T06:17:45.197Z,4.07
2018-12-11T06:18:45.512Z,4.06
2018-12-11T06:19:45.836Z,4.05
2018-12-11T06:20:46.164Z,4.05
2018-12-11T06:21:46.852Z,4.04
2018-12-11T06:22:47.444Z,4.03
2018-12-11T06:23:47.725Z,4.02
2018-12-11T06:24:47.927Z,4.01
2018-12-11T06:25:48.407Z,4.00
2018-12-11T06:26:48.798Z,3.99
2018-12-11T06:27:49.560Z,3.98
2018-12-11T06:28:49.917Z,3.97
2018-12-11T06:29:50.176Z,3.97
2018-12-11T06:30:50.508Z,3.96
2018-12-11T06:31:51.088Z,3.96
2018-12-11T06:32:51.429Z,3.95
2018-12-11T06:33:51.656Z,3.95
2018-12-11T06:34:51.868Z,3.95
2018-12-11T06:35:52.089Z,3.95
2018-12-11T06:36:52.598Z,3.95
2018-12-11T06:37:53.089Z,3.94
2018-12-11T06:38:53.469Z,3.94
2018-12-11T06:39:53.728Z,3.94
2018-12-11T06:40:54.053Z,3.94
2018-12-11T06:41:53.275Z,3.94
2018-12-11T06:42:54.565Z,3.94
2018-12-11T06:43:54.826Z,3.94
2018-12-11T06:44:55.148Z,3.93
2018-12-11T06:45:55.815Z,3.93
2018-12-11T06:46:56.269Z,3.93
2018-12-11T06:47:56.832Z,3.93
2018-12-11T06:48:57.235Z,3.92
2018-12-11T06:49:56.451Z,3.92
2018-12-11T06:50:04.726Z,3.84
2018-12-11T06:51:06.140Z,3.84
2018-12-11T06:52:06.376Z,3.84
2018-12-11T06:53:06.744Z,3.83
2018-12-11T06:54:06.982Z,3.83
2018-12-11T06:55:07.264Z,3.82
2018-12-11T06:56:07.500Z,3.82
2018-12-11T06:57:07.738Z,3.81
2018-12-11T06:58:08.259Z,3.81
2018-12-11T06:59:08.573Z,3.80
2018-12-11T07:00:09.444Z,3.79
2018-12-11T07:01:09.848Z,3.79
2018-12-11T07:02:10.422Z,3.78
2018-12-11T07:03:09.792Z,3.77
2018-12-11T07:04:11.270Z,3.77
2018-12-11T07:05:11.551Z,3.77
2018-12-11T07:06:11.960Z,3.76
2018-12-11T07:07:12.195Z,3.75
2018-12-11T07:08:12.406Z,3.74
2018-12-11T07:09:12.760Z,3.73
2018-12-11T07:10:13.107Z,3.73
2018-12-11T07:11:13.450Z,3.73
2018-12-11T07:12:13.686Z,3.74
2018-12-11T07:13:14.036Z,3.75
2018-12-11T07:14:14.522Z,3.76
2018-12-11T07:15:14.865Z,3.77
2018-12-11T07:16:15.253Z,3.78
2018-12-11T07:17:15.507Z,3.78
2018-12-11T07:18:15.873Z,3.79
2018-12-11T07:19:16.314Z,3.80
2018-12-11T07:20:15.631Z,3.80
2018-12-11T07:21:16.950Z,3.80
2018-12-11T07:22:17.377Z,3.80
2018-12-11T07:23:17.737Z,3.80
2018-12-11T07:24:18.118Z,3.80
2018-12-11T07:25:18.394Z,3.79
2018-12-11T07:26:18.738Z,3.79
2018-12-11T07:27:19.127Z,3.79
2018-12-11T07:28:19.354Z,3.78
2018-12-11T07:29:19.686Z,3.78
2018-12-11T07:30:19.952Z,3.78
2018-12-11T07:31:20.329Z,3.79
2018-12-11T07:32:20.670Z,3.79
2018-12-11T07:33:21.129Z,3.79
2018-12-11T07:34:21.362Z,3.79
2018-12-11T07:35:21.604Z,3.79
2018-12-11T07:35:30.514Z,3.80
2018-12-11T07:36:31.705Z,3.80
2018-12-11T07:37:32.003Z,3.80
2018-12-11T07:38:32.352Z,3.80
2018-12-11T07:39:33.311Z,3.80
2018-12-11T07:40:33.737Z,3.80
2018-12-11T07:41:34.093Z,3.80
2018-12-11T07:42:34.530Z,3.79
2018-12-11T07:43:34.885Z,3.80
2018-12-11T07:44:35.124Z,3.79
2018-12-11T07:45:35.367Z,3.79
2018-12-11T07:46:35.704Z,3.79
2018-12-11T07:47:36.145Z,3.79
2018-12-11T07:48:36.740Z,3.79
2018-12-11T07:49:37.012Z,3.79
2018-12-11T07:50:37.248Z,3.79
2018-12-11T07:51:38.229Z,3.79
2018-12-11T07:52:37.546Z,3.78
2018-12-11T07:53:38.780Z,3.78
2018-12-11T07:54:39.154Z,3.78
2018-12-11T07:55:39.538Z,3.78
2018-12-11T07:56:39.937Z,3.79
2018-12-11T07:57:40.251Z,3.79
2018-12-11T07:58:40.481Z,3.79
2018-12-11T07:59:40.999Z,3.78
2018-12-11T08:00:41.456Z,3.78
2018-12-11T08:01:41.774Z,3.77
2018-12-11T08:02:42.443Z,3.77
2018-12-11T08:03:42.731Z,3.77
2018-12-11T08:04:43.199Z,3.77
2018-12-11T08:05:43.557Z,3.76
2018-12-11T08:06:43.955Z,3.76
2018-12-11T08:07:44.383Z,3.77
2018-12-11T08:08:44.737Z,3.77
2018-12-11T08:09:45.125Z,3.77
2018-12-11T08:10:45.445Z,3.78
2018-12-11T08:11:45.752Z,3.79
2018-12-11T08:12:46.046Z,3.79
2018-12-11T08:13:46.310Z,3.81
2018-12-11T08:14:46.571Z,3.82
2018-12-11T08:15:46.872Z,3.83
2018-12-11T08:16:47.133Z,3.84
2018-12-11T08:17:47.542Z,3.85
2018-12-11T08:18:48.038Z,3.85
2018-12-11T08:19:48.514Z,3.86
2018-12-11T08:20:48.852Z,3.86
2018-12-11T08:20:57.292Z,3.96
2018-12-11T08:21:58.602Z,3.96
2018-12-11T08:22:59.090Z,3.95
2018-12-11T08:23:59.419Z,3.95
2018-12-11T08:24:59.654Z,3.95
2018-12-11T08:26:00.036Z,3.95
2018-12-11T08:27:00.538Z,3.94
2018-12-11T08:28:00.939Z,3.93
2018-12-11T08:29:01.328Z,3.93
2018-12-11T08:30:01.604Z,3.92
2018-12-11T08:31:02.100Z,3.91
2018-12-11T08:32:01.489Z,3.90
2018-12-11T08:33:02.858Z,3.89
2018-12-11T08:34:03.159Z,3.88
2018-12-11T08:35:03.482Z,3.87
2018-12-11T08:36:03.881Z,3.86
2018-12-11T08:37:04.347Z,3.85
2018-12-11T08:38:04.615Z,3.85
2018-12-11T08:39:04.818Z,3.85
2018-12-11T08:40:05.287Z,3.85
2018-12-11T08:41:05.665Z,3.85
2018-12-11T08:42:06.622Z,3.85
2018-12-11T08:43:06.960Z,3.85
2018-12-11T08:44:07.218Z,3.86
2018-12-11T08:45:07.617Z,3.86
2018-12-11T08:46:07.964Z,3.86
2018-12-11T08:47:08.187Z,3.87
2018-12-11T08:48:08.556Z,3.87
2018-12-11T08:49:08.904Z,3.88
2018-12-11T08:50:09.352Z,3.88
2018-12-11T08:51:09.694Z,3.89
2018-12-11T08:52:10.045Z,3.90
2018-12-11T08:53:10.375Z,3.90
2018-12-11T08:54:10.772Z,3.91
2018-12-11T08:55:11.052Z,3.92
2018-12-11T08:56:11.424Z,3.92
2018-12-11T08:57:11.695Z,3.93
2018-12-11T08:58:12.038Z,3.94
2018-12-11T08:59:12.324Z,3.96
2018-12-11T09:00:12.892Z,3.96
2018-12-11T09:01:13.465Z,3.97
2018-12-11T09:02:13.811Z,3.97
2018-12-11T09:03:14.094Z,3.98
2018-12-11T09:04:14.625Z,3.98
2018-12-11T09:05:15.147Z,3.99
2018-12-11T09:06:15.567Z,4.00
2018-12-11T09:06:23.601Z,4.06
2018-12-11T09:07:24.847Z,4.06
2018-12-11T09:08:25.253Z,4.05
2018-12-11T09:09:25.729Z,4.05
2018-12-11T09:10:26.049Z,4.06
2018-12-11T09:11:26.364Z,4.06
2018-12-11T09:12:26.612Z,4.06
2018-12-11T09:13:27.198Z,4.06
2018-12-11T09:14:27.555Z,4.07
2018-12-11T09:15:27.863Z,4.07
2018-12-11T09:16:28.204Z,4.07
2018-12-11T09:17:28.479Z,4.08
2018-12-11T09:18:28.807Z,4.08
2018-12-11T09:19:29.381Z,4.08
2018-12-11T09:20:29.637Z,4.09
2018-12-11T09:21:29.960Z,4.09
2018-12-11T09:22:30.270Z,4.10
2018-12-11T09:23:30.628Z,4.10
2018-12-11T09:24:31.064Z,4.11
2018-12-11T09:25:31.641Z,4.10
2018-12-11T09:26:31.953Z,4.10
2018-12-11T09:27:32.435Z,4.10
2018-12-11T09:28:32.945Z,4.11
2018-12-11T09:29:33.241Z,4.11
2018-12-11T09:30:33.711Z,4.11
2018-12-11T09:31:34.039Z,4.11
2018-12-11T09:32:34.862Z,4.11
2018-12-11T09:33:35.186Z,4.10
2018-12-11T09:34:35.514Z,4.10
2018-12-11T09:35:36.174Z,4.09
2018-12-11T09:36:36.801Z,4.09
2018-12-11T09:37:37.110Z,4.09
2018-12-11T09:38:37.405Z,4.09
2018-12-11T09:39:37.717Z,4.08
2018-12-11T09:40:38.240Z,4.08
2018-12-11T09:41:38.514Z,4.07
2018-12-11T09:42:38.955Z,4.06
2018-12-11T09:43:39.207Z,4.05
2018-12-11T09:44:39.518Z,4.04
2018-12-11T09:45:39.742Z,4.03
2018-12-11T09:46:40.014Z,4.02
2018-12-11T09:47:40.379Z,4.02
2018-12-11T09:48:40.689Z,4.01
2018-12-11T09:49:41.187Z,3.99
2018-12-11T09:50:41.653Z,3.99
2018-12-11T09:50:49.958Z,3.99
2018-12-11T09:51:51.344Z,3.99
2018-12-11T09:52:51.645Z,3.99
2018-12-11T09:53:51.951Z,3.98
2018-12-11T09:54:52.166Z,3.98
2018-12-11T09:55:52.565Z,3.97
2018-12-11T09:56:52.856Z,3.96
2018-12-11T09:57:53.370Z,3.96
2018-12-11T09:58:53.722Z,3.95
2018-12-11T09:59:53.962Z,3.94
2018-12-11T10:00:54.230Z,3.93
2018-12-11T10:01:54.591Z,3.93
2018-12-11T10:02:54.964Z,3.92
2018-12-11T10:03:55.197Z,3.92
2018-12-11T10:04:55.593Z,3.92
2018-12-11T10:05:55.995Z,3.93
2018-12-11T10:06:56.949Z,3.93
2018-12-11T10:07:57.583Z,3.95
2018-12-11T10:08:58.101Z,3.96
2018-12-11T10:09:58.395Z,3.97
2018-12-11T10:10:58.699Z,3.98
2018-12-11T10:11:59.204Z,4.00
2018-12-11T10:13:00.094Z,4.01
2018-12-11T10:14:00.545Z,4.02
2018-12-11T10:15:01.074Z,4.04
2018-12-11T10:16:01.670Z,4.05
2018-12-11T10:17:02.010Z,4.07
2018-12-11T10:18:02.263Z,4.08
2018-12-11T10:19:02.658Z,4.10
2018-12-11T10:20:02.925Z,4.12
2018-12-11T10:21:03.315Z,4.14
2018-12-11T10:22:04.290Z,4.15
2018-12-11T10:23:04.562Z,4.16
2018-12-11T10:24:05.428Z,4.18
2018-12-11T10:25:05.947Z,4.19
2018-12-11T10:26:06.196Z,4.21
2018-12-11T10:27:06.724Z,4.22
2018-12-11T10:28:07.042Z,4.23
2018-12-11T10:29:07.461Z,4.25
2018-12-11T10:30:08.085Z,4.26
2018-12-11T10:31:08.384Z,4.27
2018-12-11T10:32:08.718Z,4.28
2018-12-11T10:33:09.275Z,4.29
2018-12-11T10:34:09.749Z,4.31
2018-12-11T10:35:09.982Z,4.32
2018-12-11T10:36:10.645Z,4.32
2018-12-11T10:36:19.063Z,4.48
2018-12-11T10:37:20.467Z,4.48
2018-12-11T10:38:21.003Z,4.48
2018-12-11T10:39:21.497Z,4.48
2018-12-11T10:40:21.778Z,4.49
2018-12-11T10:41:22.149Z,4.50
2018-12-11T10:42:22.471Z,4.50
2018-12-11T10:43:22.084Z,4.52
2018-12-11T10:44:23.739Z,4.54
2018-12-11T10:45:24.148Z,4.56
2018-12-11T10:46:24.535Z,4.59
2018-12-11T10:47:23.737Z,4.61
2018-12-11T10:48:25.042Z,4.63
2018-12-11T10:49:25.597Z,4.65
2018-12-11T10:50:25.964Z,4.67
2018-12-11T10:51:26.411Z,4.68
2018-12-11T10:52:26.682Z,4.68
2018-12-11T10:53:26.931Z,4.69
2018-12-11T10:54:27.180Z,4.70
2018-12-11T10:55:27.528Z,4.70
2018-12-11T10:56:27.892Z,4.71
2018-12-11T10:57:28.490Z,4.71
2018-12-11T10:58:28.872Z,4.72
2018-12-11T10:59:29.163Z,4.72
2018-12-11T11:00:29.477Z,4.73
2018-12-11T11:01:29.958Z,4.73
2018-12-11T11:02:30.391Z,4.73
2018-12-11T11:03:35.122Z,4.74
2018-12-11T11:04:29.764Z,4.75
2018-12-11T11:05:31.099Z,4.75
2018-12-11T11:06:31.361Z,4.76
2018-12-11T11:07:31.675Z,4.77
2018-12-11T11:08:32.053Z,4.77
2018-12-11T11:09:32.372Z,4.77
2018-12-11T11:10:32.720Z,4.77
2018-12-11T11:11:32.294Z,4.78
2018-12-11T11:12:33.700Z,4.78
2018-12-11T11:13:34.147Z,4.79
2018-12-11T11:14:34.386Z,4.79
2018-12-11T11:15:34.508Z,4.80
2018-12-11T11:16:34.835Z,4.80
2018-12-11T11:17:35.158Z,4.81
2018-12-11T11:18:35.510Z,4.82
2018-12-11T11:19:36.165Z,4.83
2018-12-11T11:20:36.690Z,4.83
2018-12-11T11:21:37.226Z,4.84
2018-12-11T11:22:38.518Z,4.85
2018-12-11T11:23:38.115Z,4.86
2018-12-11T11:24:38.597Z,4.88
2018-12-11T11:24:47.068Z,5.15
2018-12-11T11:25:48.340Z,5.14
2018-12-11T11:26:48.855Z,5.15
2018-12-11T11:27:49.351Z,5.15
2018-12-11T11:28:49.643Z,5.16
2018-12-11T11:29:50.056Z,5.16
2018-12-11T11:30:50.441Z,5.16
2018-12-11T11:31:50.728Z,5.16
2018-12-11T11:32:51.047Z,5.16
2018-12-11T11:33:56.566Z,5.16
2018-12-11T11:34:50.722Z,5.16
2018-12-11T11:35:52.146Z,5.17
2018-12-11T11:36:52.496Z,5.17
2018-12-11T11:37:52.936Z,5.17
2018-12-11T11:38:53.870Z,5.17
2018-12-11T11:39:54.134Z,5.17
2018-12-11T11:40:54.478Z,5.17
2018-12-11T11:41:54.921Z,5.17
2018-12-11T11:42:55.228Z,5.17
2018-12-11T11:43:55.457Z,5.17
2018-12-11T11:44:55.269Z,5.17
2018-12-11T11:45:57.746Z,5.16
2018-12-11T11:46:57.251Z,5.16
2018-12-11T11:47:57.698Z,5.16
2018-12-11T11:48:58.717Z,5.16
2018-12-11T11:49:58.064Z,5.16
2018-12-11T11:50:59.846Z,5.16
2018-12-11T11:51:59.980Z,5.16
2018-12-11T11:52:59.621Z,5.16
2018-12-11T11:54:01.565Z,5.17
2018-12-11T11:55:02.379Z,5.17
2018-12-11T11:56:03.063Z,5.17
2018-12-11T11:57:03.070Z,5.17
2018-12-11T11:58:03.369Z,5.17
2018-12-11T11:59:03.976Z,5.17
2018-12-11T12:00:04.430Z,5.17
2018-12-11T12:01:04.810Z,5.17
2018-12-11T12:02:05.225Z,5.17
2018-12-11T12:03:05.491Z,5.17
2018-12-11T12:04:05.929Z,5.17
2018-12-11T12:05:06.340Z,5.16
2018-12-11T12:06:07.361Z,5.16
2018-12-11T12:07:07.612Z,5.16
2018-12-11T12:08:07.877Z,5.15
2018-12-11T12:09:08.439Z,5.15
2018-12-11T12:10:08.763Z,5.15
2018-12-11T12:11:09.155Z,5.14
2018-12-11T12:11:17.244Z,5.13
2018-12-11T12:12:18.449Z,5.13
2018-12-11T12:13:18.721Z,5.13
2018-12-11T12:14:19.027Z,5.12
2018-12-11T12:15:19.345Z,5.11
2018-12-11T12:16:20.129Z,5.10
2018-12-11T12:17:20.685Z,5.09
2018-12-11T12:18:20.738Z,5.07
2018-12-11T12:19:21.056Z,5.06
2018-12-11T12:20:21.436Z,5.05
2018-12-11T12:21:22.113Z,5.03
2018-12-11T12:22:22.406Z,5.02
2018-12-11T12:23:23.126Z,5.00
2018-12-11T12:24:23.908Z,4.98
2018-12-11T12:25:24.543Z,4.96
2018-12-11T12:26:24.992Z,4.93
2018-12-11T12:27:25.575Z,4.91
2018-12-11T12:28:25.928Z,4.88
2018-12-11T12:29:26.181Z,4.86
2018-12-11T12:30:26.558Z,4.84
2018-12-11T12:31:26.954Z,4.82
2018-12-11T12:32:27.249Z,4.80
2018-12-11T12:33:27.707Z,4.78
2018-12-11T12:34:28.105Z,4.76
2018-12-11T12:35:28.898Z,4.74
2018-12-11T12:36:28.749Z,4.73
2018-12-11T12:37:30.087Z,4.72
2018-12-11T12:38:30.579Z,4.71
2018-12-11T12:39:30.874Z,4.70
2018-12-11T12:40:31.445Z,4.69
2018-12-11T12:41:31.976Z,4.68
2018-12-11T12:42:32.644Z,4.67
2018-12-11T12:43:32.896Z,4.66
2018-12-11T12:44:33.397Z,4.65
2018-12-11T12:45:33.972Z,4.64
2018-12-11T12:46:34.323Z,4.64
2018-12-11T12:47:34.572Z,4.64
2018-12-11T12:48:34.842Z,4.63
2018-12-11T12:49:35.150Z,4.63
2018-12-11T12:50:35.513Z,4.63
2018-12-11T12:51:36.034Z,4.63
2018-12-11T12:52:36.309Z,4.63
2018-12-11T12:53:36.614Z,4.63
2018-12-11T12:54:37.414Z,4.62
2018-12-11T12:55:37.693Z,4.62
2018-12-11T12:56:38.160Z,4.62
2018-12-11T12:56:47.512Z,4.64
2018-12-11T12:57:47.546Z,4.64
2018-12-11T12:58:47.919Z,4.64
2018-12-11T12:59:48.447Z,4.64
2018-12-11T13:00:48.898Z,4.64
2018-12-11T13:01:49.277Z,4.64
2018-12-11T13:02:50.311Z,4.64
2018-12-11T13:03:49.036Z,4.65
2018-12-11T13:04:50.332Z,4.65
2018-12-11T13:05:50.920Z,4.65
2018-12-11T13:06:51.649Z,4.66
2018-12-11T13:07:52.300Z,4.65
2018-12-11T13:08:51.836Z,4.65